createdAt,value
2023-04-12T00:03:03.551Z,1003.33
2023-04-12T00:06:12.568Z,1003.30
2023-04-12T00:09:20.371Z,1003.37
2023-04-12T00:12:28.122Z,1003.29
2023-04-12T00:15:37.109Z,1003.26
2023-04-12T00:18:47.192Z,1003.13
2023-04-12T00:21:55.118Z,1003.02
2023-04-12T00:25:02.587Z,1002.94
2023-04-12T00:28:11.205Z,1002.78
2023-04-12T00:31:18.875Z,1002.75
2023-04-12T00:34:26.504Z,1002.71
2023-04-12T00:37:35.588Z,1002.60
2023-04-12T00:40:42.591Z,1002.61
2023-04-12T00:43:50.287Z,1002.54
2023-04-12T00:46:59.342Z,1002.57
2023-04-12T00:50:06.798Z,1002.52
2023-04-12T00:53:14.600Z,1002.49
2023-04-12T00:56:23.117Z,1002.43
2023-04-12T00:59:31.094Z,1002.36
2023-04-12T01:02:39.454Z,1002.38
2023-04-12T01:05:47.982Z,1002.30
2023-04-12T01:08:55.653Z,1002.27
2023-04-12T01:12:03.402Z,1002.26
2023-04-12T01:15:10.719Z,1002.20
2023-04-12T01:18:20.195Z,1002.16
2023-04-12T01:21:28.046Z,1002.15
2023-04-12T01:24:35.346Z,1002.12
2023-04-12T01:27:44.316Z,1002.12
2023-04-12T01:30:51.495Z,1002.11
2023-04-12T01:33:59.580Z,1002.03
2023-04-12T01:37:08.348Z,1002.02
2023-04-12T01:40:15.661Z,1001.96
2023-04-12T01:43:23.240Z,1001.87
2023-04-12T01:46:31.926Z,1001.77
2023-04-12T01:49:39.176Z,1001.77
2023-04-12T01:52:47.137Z,1001.61
2023-04-12T01:55:54.864Z,1001.59
2023-04-12T01:59:03.756Z,1001.53
2023-04-12T02:02:11.527Z,1001.45
2023-04-12T02:05:18.507Z,1001.36
2023-04-12T02:08:27.406Z,1001.36
2023-04-12T02:11:34.702Z,1001.35
2023-04-12T02:14:42.106Z,1001.28
2023-04-12T02:17:50.858Z,1001.16
2023-04-12T02:20:57.892Z,1001.07
2023-04-12T02:24:05.779Z,1001.08
2023-04-12T02:27:14.542Z,1000.88
2023-04-12T02:30:22.000Z,1000.90
2023-04-12T02:33:29.947Z,1000.91
2023-04-12T02:36:36.837Z,1000.81
2023-04-12T02:39:45.942Z,1000.77
2023-04-12T02:42:53.570Z,1000.68
2023-04-12T02:46:00.710Z,1000.69
2023-04-12T02:49:09.792Z,1000.61
2023-04-12T02:52:17.429Z,1000.53
2023-04-12T02:55:24.816Z,1000.53
2023-04-12T02:58:33.777Z,1000.38
2023-04-12T03:01:41.200Z,1000.30
2023-04-12T03:04:48.436Z,1000.37
2023-04-12T03:07:57.377Z,1000.35
2023-04-12T03:11:04.622Z,1000.35
2023-04-12T03:14:11.933Z,1000.33
2023-04-12T03:17:19.191Z,1000.25
2023-04-12T03:20:28.136Z,1000.24
2023-04-12T03:23:35.636Z,1000.16
2023-04-12T03:26:42.929Z,1000.11
2023-04-12T03:29:52.006Z,1000.06
2023-04-12T03:32:59.236Z,999.97
2023-04-12T03:36:06.849Z,999.96
2023-04-12T03:39:16.141Z,999.92
2023-04-12T03:42:33.241Z,999.80
2023-04-12T03:45:28.081Z,999.88
2023-04-12T03:48:36.897Z,999.80
2023-04-12T03:51:44.272Z,999.65
2023-04-12T03:54:52.011Z,999.59
2023-04-12T03:58:00.878Z,999.46
2023-04-12T04:01:08.149Z,999.36
2023-04-12T04:04:16.073Z,999.28
2023-04-12T04:07:23.515Z,999.23
2023-04-12T04:10:32.209Z,999.19
2023-04-12T04:13:39.764Z,999.19
2023-04-12T04:16:47.378Z,999.15
2023-04-12T04:19:56.362Z,999.16
2023-04-12T04:23:04.086Z,999.14
2023-04-12T04:26:11.906Z,999.03
2023-04-12T04:29:20.588Z,998.84
2023-04-12T04:32:27.649Z,998.84
2023-04-12T04:35:35.237Z,998.83
2023-04-12T04:38:43.907Z,998.75
2023-04-12T04:41:51.254Z,998.71
2023-04-12T04:44:59.303Z,998.63
2023-04-12T04:48:07.121Z,998.65
2023-04-12T04:51:15.716Z,998.61
2023-04-12T04:54:23.800Z,998.55
2023-04-12T04:57:30.643Z,998.50
2023-04-12T05:00:39.598Z,998.51
2023-04-12T05:03:47.269Z,998.48
2023-04-12T05:06:54.575Z,998.48
2023-04-12T05:10:04.083Z,998.36
2023-04-12T05:13:11.641Z,998.38
2023-04-12T05:16:18.701Z,998.38
2023-04-12T05:19:27.934Z,998.33
2023-04-12T05:22:35.075Z,998.32
2023-04-12T05:25:44.012Z,998.26
2023-04-12T05:28:52.040Z,998.32
2023-04-12T05:32:00.751Z,998.26
2023-04-12T05:35:08.250Z,998.19
2023-04-12T05:38:16.371Z,998.08
2023-04-12T05:41:25.212Z,998.06
2023-04-12T05:44:32.667Z,998.07
2023-04-12T05:47:40.221Z,997.93
2023-04-12T05:50:49.227Z,997.78
2023-04-12T05:53:56.785Z,997.83
2023-04-12T05:57:04.083Z,997.73
2023-04-12T06:00:13.175Z,997.74
2023-04-12T06:03:20.730Z,997.64
2023-04-12T06:06:28.202Z,997.68
2023-04-12T06:09:37.805Z,997.66
2023-04-12T06:12:45.368Z,997.58
2023-04-12T06:15:53.141Z,997.57
2023-04-12T06:19:01.283Z,997.45
2023-04-12T06:22:09.908Z,997.47
2023-04-12T06:25:17.839Z,997.36
2023-04-12T06:28:25.937Z,997.25
2023-04-12T06:31:34.371Z,997.28
2023-04-12T06:34:41.986Z,997.19
2023-04-12T06:37:50.028Z,997.22
2023-04-12T06:40:58.824Z,997.20
2023-04-12T06:44:06.609Z,997.18
2023-04-12T06:47:14.571Z,997.03
2023-04-12T06:50:23.266Z,996.90
2023-04-12T06:53:31.110Z,996.88
2023-04-12T06:56:38.400Z,996.88
2023-04-12T06:59:45.659Z,996.85
2023-04-12T07:02:55.435Z,996.78
2023-04-12T07:06:10.605Z,996.72
2023-04-12T07:09:07.374Z,996.69
2023-04-12T07:12:16.149Z,996.64
2023-04-12T07:15:23.554Z,996.60
2023-04-12T07:18:31.133Z,996.55
2023-04-12T07:21:39.607Z,996.51
2023-04-12T07:24:47.101Z,996.40
2023-04-12T07:27:54.831Z,996.39
2023-04-12T07:31:03.329Z,996.33
2023-04-12T07:34:11.441Z,996.18
2023-04-12T07:37:19.080Z,996.19
2023-04-12T07:40:26.131Z,996.17
2023-04-12T07:43:35.514Z,996.18
2023-04-12T07:46:43.350Z,996.09
2023-04-12T07:49:50.415Z,996.01
2023-04-12T07:52:59.587Z,995.99
2023-04-12T07:56:07.178Z,995.92
2023-04-12T07:59:14.126Z,995.87
2023-04-12T08:02:23.482Z,995.79
2023-04-12T08:05:31.228Z,995.65
2023-04-12T08:08:38.571Z,995.58
2023-04-12T08:11:47.842Z,995.37
2023-04-12T08:14:55.301Z,995.42
2023-04-12T08:18:02.901Z,995.42
2023-04-12T08:21:12.017Z,995.39
2023-04-12T08:24:19.231Z,995.34
2023-04-12T08:27:26.612Z,995.34
2023-04-12T08:30:34.425Z,995.29
2023-04-12T08:33:43.311Z,995.23
2023-04-12T08:36:50.612Z,995.18
2023-04-12T08:39:58.007Z,995.04
2023-04-12T08:43:07.042Z,994.86
2023-04-12T08:46:14.420Z,994.74
2023-04-12T08:49:22.068Z,994.71
2023-04-12T08:52:31.327Z,994.75
2023-04-12T08:55:38.670Z,994.61
2023-04-12T08:58:45.751Z,994.57
2023-04-12T09:01:55.087Z,994.51
2023-04-12T09:05:02.427Z,994.40
2023-04-12T09:08:09.438Z,994.35
2023-04-12T09:11:17.077Z,994.36
2023-04-12T09:14:25.389Z,994.30
2023-04-12T09:17:33.126Z,994.21
2023-04-12T09:20:40.373Z,994.19
2023-04-12T09:23:48.725Z,994.16
2023-04-12T09:26:56.316Z,994.14
2023-04-12T09:30:03.666Z,994.08
2023-04-12T09:33:12.764Z,994.19
2023-04-12T09:36:20.336Z,994.07
2023-04-12T09:39:27.526Z,994.09
2023-04-12T09:42:36.562Z,994.10
2023-04-12T09:45:43.639Z,994.06
2023-04-12T09:48:51.573Z,994.12
2023-04-12T09:51:59.723Z,994.05
2023-04-12T09:55:08.609Z,994.00
2023-04-12T09:58:16.154Z,994.01
2023-04-12T10:01:23.890Z,993.94
2023-04-12T10:04:32.456Z,993.90
2023-04-12T10:07:40.039Z,993.95
2023-04-12T10:10:47.845Z,993.87
2023-04-12T10:13:56.476Z,993.83
2023-04-12T10:17:04.478Z,993.74
2023-04-12T10:20:11.558Z,993.69
2023-04-12T10:23:20.679Z,993.68
2023-04-12T10:26:28.532Z,993.63
2023-04-12T10:29:35.945Z,993.61
2023-04-12T10:32:43.564Z,993.62
2023-04-12T10:35:52.827Z,993.59
2023-04-12T10:39:00.315Z,993.54
2023-04-12T10:42:07.660Z,993.57
2023-04-12T10:45:16.460Z,993.55
2023-04-12T10:48:24.265Z,993.50
2023-04-12T10:51:32.271Z,993.48
2023-04-12T10:54:40.678Z,993.56
2023-04-12T10:57:48.303Z,993.50
2023-04-12T11:00:56.029Z,993.48
2023-04-12T11:04:05.329Z,993.45
2023-04-12T11:07:13.864Z,993.41
2023-04-12T11:10:21.686Z,993.25
2023-04-12T11:13:30.427Z,993.33
2023-04-12T11:16:37.720Z,993.29
2023-04-12T11:19:45.529Z,993.31
2023-04-12T11:22:52.807Z,993.20
2023-04-12T11:26:01.624Z,993.21
2023-04-12T11:29:08.989Z,993.18
2023-04-12T11:32:16.237Z,993.08
2023-04-12T11:35:25.612Z,993.07
2023-04-12T11:38:33.561Z,993.09
2023-04-12T11:41:40.710Z,992.99
2023-04-12T11:44:56.483Z,992.90
2023-04-12T11:47:54.913Z,992.90
2023-04-12T11:51:11.120Z,992.99
2023-04-12T11:54:08.080Z,992.95
2023-04-12T11:57:15.683Z,992.81
2023-04-12T12:00:23.254Z,992.94
2023-04-12T12:03:31.125Z,992.88
2023-04-12T12:06:40.429Z,992.85
2023-04-12T12:09:48.339Z,992.74
2023-04-12T12:12:57.021Z,992.60
2023-04-12T12:16:06.125Z,992.57
2023-04-12T12:19:13.718Z,992.47
2023-04-12T12:22:21.324Z,992.44
2023-04-12T12:25:30.471Z,992.39
2023-04-12T12:28:38.463Z,992.30
2023-04-12T12:31:45.923Z,992.33
2023-04-12T12:34:55.360Z,992.16
2023-04-12T12:38:02.495Z,992.20
2023-04-12T12:41:10.204Z,992.24
2023-04-12T12:44:17.978Z,992.24
2023-04-12T12:47:26.569Z,992.17
2023-04-12T12:50:34.568Z,992.06
2023-04-12T12:53:42.363Z,992.10
2023-04-12T12:56:50.796Z,992.04
2023-04-12T12:59:58.698Z,992.05
2023-04-12T13:03:06.526Z,991.94
2023-04-12T13:06:15.517Z,991.88
2023-04-12T13:09:23.097Z,991.84
2023-04-12T13:12:30.556Z,991.74
2023-04-12T13:15:39.340Z,991.73
2023-04-12T13:18:46.314Z,991.75
2023-04-12T13:21:53.978Z,991.77
2023-04-12T13:25:01.416Z,991.77
2023-04-12T13:28:09.936Z,991.70
2023-04-12T13:31:18.086Z,991.62
2023-04-12T13:34:25.424Z,991.64
2023-04-12T13:37:33.914Z,991.59
2023-04-12T13:40:41.656Z,991.51
2023-04-12T13:43:48.844Z,991.40
2023-04-12T13:46:58.059Z,991.40
2023-04-12T13:50:06.028Z,991.34
2023-04-12T13:53:13.099Z,991.32
2023-04-12T13:56:22.253Z,991.29
2023-04-12T13:59:30.156Z,991.25
2023-04-12T14:02:37.348Z,991.22
2023-04-12T14:05:46.675Z,991.30
2023-04-12T14:08:54.384Z,991.34
2023-04-12T14:12:01.647Z,991.28
2023-04-12T14:15:09.383Z,991.28
2023-04-12T14:18:18.166Z,991.32
2023-04-12T14:21:25.551Z,991.17
2023-04-12T14:24:33.037Z,991.26
2023-04-12T14:27:41.749Z,991.21
2023-04-12T14:30:49.347Z,991.10
2023-04-12T14:33:57.385Z,991.10
2023-04-12T14:37:06.566Z,991.00
2023-04-12T14:40:14.033Z,990.94
2023-04-12T14:43:21.334Z,990.91
2023-04-12T14:46:30.576Z,990.84
2023-04-12T14:49:37.889Z,990.73
2023-04-12T14:52:45.268Z,990.80
2023-04-12T14:55:53.306Z,990.73
2023-04-12T14:59:02.173Z,990.65
2023-04-12T15:02:09.660Z,990.59
2023-04-12T15:05:17.351Z,990.68
2023-04-12T15:08:25.967Z,990.77
2023-04-12T15:11:33.377Z,990.74
2023-04-12T15:14:41.157Z,990.70
2023-04-12T15:17:49.559Z,990.70
2023-04-12T15:20:57.253Z,990.74
2023-04-12T15:24:04.915Z,990.63
2023-04-12T15:27:13.817Z,990.74
2023-04-12T15:30:21.106Z,990.68
2023-04-12T15:33:28.766Z,990.75
2023-04-12T15:36:35.850Z,990.80
2023-04-12T15:39:45.416Z,990.68
2023-04-12T15:42:52.821Z,990.59
2023-04-12T15:46:00.250Z,990.52
2023-04-12T15:49:09.245Z,990.43
2023-04-12T15:52:16.760Z,990.43
2023-04-12T15:55:24.041Z,990.36
2023-04-12T15:58:33.188Z,990.26
2023-04-12T16:01:40.618Z,990.28
2023-04-12T16:04:48.166Z,990.31
2023-04-12T16:07:57.049Z,990.27
2023-04-12T16:11:04.406Z,990.29
2023-04-12T16:14:12.258Z,990.25
2023-04-12T16:17:19.745Z,990.27
2023-04-12T16:20:28.669Z,990.31
2023-04-12T16:23:36.089Z,990.22
2023-04-12T16:26:43.226Z,990.19
2023-04-12T16:29:52.242Z,990.21
2023-04-12T16:33:00.434Z,990.21
2023-04-12T16:36:07.491Z,990.21
2023-04-12T16:39:16.728Z,990.33
2023-04-12T16:42:24.356Z,990.23
2023-04-12T16:45:32.023Z,990.17
2023-04-12T16:48:41.385Z,990.20
2023-04-12T16:51:48.566Z,990.16
2023-04-12T16:54:56.783Z,990.09
2023-04-12T16:58:06.206Z,990.02
2023-04-12T17:04:21.219Z,990.05
2023-04-12T17:07:28.821Z,989.95
2023-04-12T17:10:37.849Z,989.95
2023-04-12T17:13:45.232Z,989.91
2023-04-12T17:16:52.959Z,989.91
2023-04-12T17:20:02.380Z,989.89
2023-04-12T17:23:10.330Z,989.91
2023-04-12T17:26:18.344Z,989.92
2023-04-12T17:29:27.923Z,989.96
2023-04-12T17:32:35.342Z,989.86
2023-04-12T17:35:43.132Z,989.79
2023-04-12T17:38:52.438Z,989.84
2023-04-12T17:41:59.510Z,989.88
2023-04-12T17:45:06.934Z,989.94
2023-04-12T17:48:14.761Z,989.98
2023-04-12T17:51:23.450Z,990.03
2023-04-12T17:54:31.085Z,989.99
2023-04-12T17:57:38.676Z,989.97
2023-04-12T18:00:47.699Z,989.96
2023-04-12T18:03:55.851Z,989.97
2023-04-12T18:07:03.923Z,989.99
2023-04-12T18:10:12.847Z,990.14
2023-04-12T18:13:20.824Z,990.12
2023-04-12T18:16:28.987Z,990.06
2023-04-12T18:19:39.937Z,990.16
2023-04-12T18:22:47.936Z,990.19
2023-04-12T18:25:55.545Z,990.35
2023-04-12T18:29:02.925Z,990.31
2023-04-12T18:32:11.682Z,990.65
2023-04-12T18:35:19.553Z,990.82
2023-04-12T18:38:26.588Z,990.74
2023-04-12T18:41:35.582Z,990.70
2023-04-12T18:44:43.402Z,990.92
2023-04-12T18:47:51.354Z,991.01
2023-04-12T18:51:00.302Z,990.99
2023-04-12T18:54:08.105Z,990.98
2023-04-12T18:57:15.961Z,990.98
2023-04-12T19:00:24.795Z,990.98
2023-04-12T19:03:32.653Z,990.90
2023-04-12T19:06:40.404Z,991.05
2023-04-12T19:09:49.357Z,991.08
2023-04-12T19:12:57.146Z,991.17
2023-04-12T19:16:05.093Z,991.17
2023-04-12T19:19:12.773Z,991.22
2023-04-12T19:22:22.299Z,991.27
2023-04-12T19:25:29.909Z,991.28
2023-04-12T19:28:37.353Z,991.34
2023-04-12T19:31:46.653Z,991.42
2023-04-12T19:34:54.003Z,991.36
2023-04-12T19:38:01.590Z,991.41
2023-04-12T19:41:10.486Z,991.65
2023-04-12T19:44:18.028Z,991.66
2023-04-12T19:47:25.312Z,991.73
2023-04-12T19:50:34.584Z,991.70
2023-04-12T19:53:42.415Z,991.84
2023-04-12T19:56:49.848Z,991.88
2023-04-12T19:59:57.371Z,991.90
2023-04-12T20:03:07.097Z,991.88
2023-04-12T20:06:14.534Z,991.99
2023-04-12T20:09:21.657Z,992.14
2023-04-12T20:12:30.510Z,992.14
2023-04-12T20:15:37.404Z,992.14
2023-04-12T20:18:44.863Z,992.15
2023-04-12T20:21:53.785Z,992.20
2023-04-12T20:25:00.710Z,992.14
2023-04-12T20:28:08.165Z,992.12
2023-04-12T20:31:17.248Z,992.13
2023-04-12T20:34:24.040Z,992.22
2023-04-12T20:37:31.360Z,992.20
2023-04-12T20:40:38.868Z,992.18
2023-04-12T20:43:47.222Z,992.30
2023-04-12T20:46:55.028Z,992.40
2023-04-12T20:50:02.974Z,992.48
2023-04-12T20:53:11.142Z,992.57
2023-04-12T20:56:18.882Z,992.56
2023-04-12T20:59:25.969Z,992.52
2023-04-12T21:02:34.673Z,992.52
2023-04-12T21:05:42.079Z,992.59
2023-04-12T21:08:49.262Z,992.64
2023-04-12T21:11:58.142Z,992.70
2023-04-12T21:15:04.911Z,992.58
2023-04-12T21:18:12.444Z,992.52
2023-04-12T21:21:20.197Z,992.50
2023-04-12T21:24:28.425Z,992.66
2023-04-12T21:27:36.051Z,992.70
2023-04-12T21:30:43.571Z,992.73
2023-04-12T21:33:51.859Z,992.75
2023-04-12T21:36:59.582Z,992.75
2023-04-12T21:40:06.749Z,992.72
2023-04-12T21:43:15.309Z,992.77
2023-04-12T21:46:22.865Z,992.91
2023-04-12T21:49:30.037Z,992.81
2023-04-12T21:52:38.710Z,992.71
2023-04-12T21:55:46.073Z,992.78
2023-04-12T21:58:53.141Z,992.73
2023-04-12T22:02:01.911Z,992.70
2023-04-12T22:05:09.256Z,992.62
2023-04-12T22:08:16.955Z,992.67
2023-04-12T22:11:24.131Z,992.59
2023-04-12T22:14:32.558Z,992.51
2023-04-12T22:17:40.123Z,992.47
2023-04-12T22:20:47.297Z,992.51
2023-04-12T22:23:56.056Z,992.44
2023-04-12T22:27:03.535Z,992.56
2023-04-12T22:30:10.763Z,992.56
2023-04-12T22:33:19.361Z,992.51
2023-04-12T22:36:29.342Z,992.47
2023-04-12T22:39:36.376Z,992.34
2023-04-12T22:42:44.917Z,992.37
2023-04-12T22:45:52.654Z,992.47
2023-04-12T22:48:59.506Z,992.55
2023-04-12T22:52:06.641Z,992.69
2023-04-12T22:55:15.663Z,992.76
2023-04-12T22:58:22.891Z,992.77
2023-04-12T23:01:30.285Z,992.71
2023-04-12T23:04:38.822Z,992.69
2023-04-12T23:07:46.263Z,992.66
2023-04-12T23:10:53.450Z,992.63
2023-04-12T23:14:01.973Z,992.58
2023-04-12T23:17:09.949Z,992.61
2023-04-12T23:20:17.129Z,992.59
2023-04-12T23:23:25.738Z,992.44
2023-04-12T23:26:32.965Z,992.38
2023-04-12T23:29:39.996Z,992.33
2023-04-12T23:32:47.901Z,992.45
2023-04-12T23:35:56.228Z,992.46
2023-04-12T23:39:03.560Z,992.44
2023-04-12T23:42:11.035Z,992.53
2023-04-12T23:45:19.797Z,992.54
2023-04-12T23:48:27.014Z,992.58
2023-04-12T23:51:34.573Z,992.60
2023-04-12T23:54:43.180Z,992.66
2023-04-12T23:57:50.363Z,992.71
